Terminal Aerodrome Forecast
Issued by NWS

Home | Current Version | Previous Version | Text Only | Print | Product List | Glossary On
Versions: 1 2 3 4 5 6 7 8 9 10 11 12 13
000
FTUS44 KLIX 250500
TAFMCB
TAF
KMCB 250520Z 2506/2606 00000KT P6SM FEW060
      TEMPO 2508/2512 5SM BR
     FM251430 26005KT P6SM SCT040 PROB30 2520/2524 2SM TSRA BKN028CB
     FM260100 VRB03KT P6SM FEW110 SCT250=

USA.gov is the U.S. government's official web portal to all federal, state and local government web resources and services.